x

Southwest Hawaii - 215nm Ssw Of Hilo, Hi (51002) Wave Buoy

8:50pm - Thu 26th Mar 2015 All times are HST. -10 hours from GMT.

  • Sig Wave height 7.2ft
  • Swell Direction
  • Peak Period 7s
  • Average Period 6s
  • Wind
    22mph, 29mph gusts
  • Sea Temp 78°f
  • Air Temp 78°f
  • Sea Pressure 1018.3mb
  • Southwest Hawaii - 215nm Ssw Of Hilo, Hi
  • Southwest Hawaii - 215nm Ssw Of Hilo, Hi

More Historic Weather Station data

Upgrade to MSW Pro to gain access to the past 30 days of data for over 8000 Wavebouys and Weather Stations around the globe.

Join Pro

Comparision Forecast

View Surf forecast
   
Thu 03/26 8:50pm 7ft 7s 6s 22 29 mph 1018.3mb 78f 78f
7:50pm 7ft 7s 6s 22 27 mph 1017.6mb 78f 78f
6:50pm 7ft 7s 6s 22 27 mph 1016.7mb 78f 77f
5:50pm 7ft 8s 6s 22 25 mph 1016.1mb 78f 78f
4:50pm 7ft 7s 6s 22 25 mph 1015.6mb 78f 78f
3:50pm 7ft 7s 6s 20 25 mph 1015.4mb 78f 78f
2:50pm 6.5ft 7s 6s 22 25 mph 1015.6mb 78f 78f
1:50pm 7ft 8s 6s 20 22 mph 1016.2mb 78f 78f
12:50pm 7ft 6s 5s 20 25 mph 1016.8mb 78f 78f
11:50am 7ft 7s 5s 20 25 mph 1017.5mb 77f 78f
10:50am 5.5ft 6s 5s 22 27 mph 1018mb 77f 77f
9:50am 5.5ft 5s 5s 20 25 mph 1018.2mb 77f 77f
8:50am 5ft 8s 5s 22 27 mph 1018mb 77f 77f
7:50am 5ft 8s 5s 20 25 mph 1017.5mb 77f 77f
6:50am 5.5ft 8s 5s 20 25 mph 1017mb 77f 77f
5:50am 5ft 8s 5s 20 25 mph 1016.5mb 77f 77f
4:50am 4.5ft 8s 5s 20 22 mph 1016.1mb 77f 76f
3:50am 5ft 8s 5s 20 25 mph 1016mb 78f 77f
2:50am 4.5ft 8s 5s 20 22 mph 1016.6mb 78f 77f
1:50am 4.5ft 8s 5s 18 22 mph 1017.3mb 78f 77f
12:50am 5ft 8s 6s 18 22 mph 1018.1mb 78f 77f
Wed 03/25 11:50pm 4.5ft 8s 5s 18 20 mph 1018.4mb 78f 77f
10:50pm 4.5ft 9s 6s 18 20 mph 1018.4mb 78f 77f
9:50pm 4.5ft 8s 6s 16 18 mph 1018mb 78f 77f
8:50pm 4.5ft 8s 6s 16 18 mph 1017.3mb 78f 77f
7:50pm 4.5ft 8s 6s 16
mph
1016.5mb 78f 77f
6:50pm 4.5ft 15s 6s 16
mph
1016mb 78f 77f
5:50pm 4.5ft 15s 6s 16 18 mph 1015.6mb 78f 78f
4:50pm 4.5ft 14s 7s 16 18 mph 1015.3mb 78f 77f
3:50pm 4ft 15s 6s 13 16 mph 1015.2mb 78f 77f
2:50pm 4.5ft 13s 7s 11 13 mph 1015.7mb 78f 77f
1:50pm 5ft 14s 7s 11
mph
1016.2mb 78f 77f
12:50pm 4.5ft 9s 7s 11 13 mph 1017.1mb 78f 77f
11:50am 4.5ft 14s 7s 11
mph
1017.8mb 78f 76f
10:50am 4.5ft 14s 7s 11 13 mph 1017.9mb 78f 77f
9:50am 4.5ft 14s 6s 13 16 mph 1018.2mb 77f 77f
8:50am 5ft 13s 6s 13 18 mph 1018mb 77f 77f
7:50am 5ft 8s 6s 13 16 mph 1017.6mb 77f 77f
6:50am 5ft 14s 6s 13 16 mph 1017mb 77f 76f
5:50am 5ft 15s 6s 16 18 mph 1016.9mb 77f 76f
4:50am 5ft 15s 6s 16 18 mph 1016.5mb 77f 76f
3:50am 5ft 14s 6s 13 18 mph 1016.5mb 77f 76f
2:50am 5ft 8s 6s 13 16 mph 1016.5mb 78f 76f
1:50am 5ft 13s 6s 16 18 mph 1016.8mb 78f 77f
12:50am 6ft 15s 6s 16 18 mph 1017.5mb 78f 76f
Tue 03/24 11:50pm 5.5ft 8s 6s 18 20 mph 1017.8mb 78f 76f
10:50pm 5ft 8s 6s 16 20 mph 1017.9mb 78f 77f
9:50pm 5ft 8s 6s 18 20 mph 1017.7mb 78f 77f
8:50pm 6ft 15s 6s 18 20 mph 1016.8mb 78f 77f
7:50pm 5.5ft 15s 6s 16 20 mph 1016.2mb 78f 77f
6:50pm 5.5ft 8s 6s 16 18 mph 1015.6mb 78f 77f
5:50pm 6ft 14s 7s 16 18 mph 1015.1mb 78f 77f
4:50pm 5.5ft 14s 7s 16 18 mph 1014.6mb 78f 77f
3:50pm 6ft 15s 8s 13 16 mph 1014.7mb 78f 77f
2:50pm 6ft 14s 7s 11 13 mph 1015.3mb 78f 77f
1:50pm 6ft 15s 8s 13 16 mph 1015.8mb 78f 77f
12:50pm 5.5ft 9s 7s 11 13 mph 1016.7mb 78f 77f
11:50am 6ft 15s 7s 11 13 mph 1017.7mb 78f 77f
10:50am 6ft 16s 7s 16 18 mph 1018.1mb 78f 77f
9:50am 6ft 8s 7s 13 18 mph 1018.3mb 78f 77f
8:50am 6ft 16s 7s 16 20 mph 1018mb 78f 77f
7:50am 6ft 16s 7s 13 18 mph 1017.6mb 78f 77f
6:50am 6ft 16s 7s 16 18 mph 1017.2mb 77f 76f
5:50am 6ft 16s 7s 13
mph
1016.8mb 77f 76f
4:50am 5.5ft 16s 7s 13 16 mph 1016.5mb 78f 77f
3:50am 6ft 8s 7s 11 13 mph 1016.5mb 78f 76f
2:50am 6ft 9s 7s 11 13 mph 1017mb 78f 76f
1:50am 6ft 8s 6s 13 18 mph 1017.6mb 78f 76f
12:50am 6ft 13s 7s 11 16 mph 1018.4mb 78f 77f
Mon 03/23 11:50pm 7ft 17s 7s 13 18 mph 1018.9mb 78f 77f
10:50pm 6.5ft 8s 7s 13 18 mph 1019.3mb 78f 77f
9:50pm 6.5ft 8s 7s 16 18 mph 1019mb 78f 77f
8:50pm 7ft 8s 6s 16 18 mph 1018.5mb 78f 77f
7:50pm 7ft 8s 7s 16 18 mph 1017.7mb 78f 78f
6:50pm 7ft 8s 6s 16 18 mph 1016.7mb 78f 77f
5:50pm 6.5ft 8s 6s 18 20 mph 1015.8mb 78f 78f
4:50pm 7ft 8s 6s 18 20 mph 1015.6mb 78f 78f
3:50pm 6.5ft 8s 6s 18 20 mph 1015.2mb 78f 78f
2:50pm 6.5ft 8s 6s 18 20 mph 1015.3mb 78f 78f
1:50pm 7ft 8s 6s 18 20 mph 1015.8mb 78f 78f
12:50pm 6.5ft 8s 6s 18 22 mph 1016.4mb 78f 78f
11:50am 7ft 8s 6s 18 22 mph 1016.9mb 78f 78f
10:50am 7ft 8s 6s 18 22 mph 1017.5mb 78f 78f
9:50am 7ft 9s 6s 20 22 mph 1017.6mb 78f 77f
8:50am 7.5ft 8s 6s 20 22 mph 1017.6mb 78f 77f